TimeCDT,TemperatureF,Dew PointF,Humidity,Sea Level PressureIn,VisibilityMPH,Wind Direction,Wind SpeedMPH,Gust SpeedMPH,PrecipitationIn,Events,Conditions,WindDirDegrees,DateUTC
12:32 AM,68.0,64.4,88,29.75,10.0,WNW,8.1,-,N/A,,Mostly Cloudy,290,2013-07-10 05:32:00
12:43 AM,68.0,64.4,88,29.75,10.0,West,10.4,-,N/A,,Scattered Clouds,280,2013-07-10 05:43:00
12:54 AM,68.0,64.0,87,29.74,10.0,West,9.2,-,N/A,,Partly Cloudy,280,2013-07-10 05:54:00
1:39 AM,66.2,64.4,94,29.76,10.0,West,9.2,-,N/A,,Mostly Cloudy,280,2013-07-10 06:39:00
1:54 AM,68.0,64.0,87,29.75,10.0,West,9.2,-,N/A,,Overcast,280,2013-07-10 06:54:00
2:14 AM,66.2,64.4,94,29.75,10.0,West,8.1,-,N/A,,Scattered Clouds,280,2013-07-10 07:14:00
2:54 AM,66.9,63.0,87,29.75,10.0,NW,13.8,21.9,N/A,,Partly Cloudy,310,2013-07-10 07:54:00
3:54 AM,63.0,57.9,84,29.77,10.0,WNW,9.2,-,N/A,,Clear,290,2013-07-10 08:54:00
4:54 AM,62.1,57.9,86,29.79,10.0,WNW,8.1,-,N/A,,Scattered Clouds,300,2013-07-10 09:54:00
5:12 AM,62.6,57.2,82,29.81,10.0,WNW,12.7,20.7,N/A,,Mostly Cloudy,300,2013-07-10 10:12:00
5:54 AM,61.0,55.9,83,29.81,10.0,NW,15.0,-,N/A,,Scattered Clouds,310,2013-07-10 10:54:00
6:54 AM,62.1,55.9,80,29.83,10.0,WNW,13.8,-,N/A,,Mostly Cloudy,300,2013-07-10 11:54:00
7:33 AM,62.6,55.4,77,29.84,10.0,WNW,11.5,20.7,N/A,,Overcast,300,2013-07-10 12:33:00
7:54 AM,64.0,55.9,75,29.83,10.0,WNW,13.8,-,N/A,,Mostly Cloudy,300,2013-07-10 12:54:00
8:06 AM,64.4,55.4,73,29.85,10.0,WNW,15.0,21.9,N/A,,Mostly Cloudy,300,2013-07-10 13:06:00
8:54 AM,64.0,54.0,70,29.86,10.0,NW,13.8,24.2,N/A,,Overcast,320,2013-07-10 13:54:00
9:54 AM,66.0,54.0,65,29.87,10.0,NW,18.4,-,N/A,,Mostly Cloudy,310,2013-07-10 14:54:00
10:54 AM,68.0,54.0,61,29.88,10.0,WNW,16.1,23.0,N/A,,Mostly Cloudy,300,2013-07-10 15:54:00
11:54 AM,69.1,53.1,57,29.89,10.0,NW,17.3,25.3,N/A,,Mostly Cloudy,320,2013-07-10 16:54:00
12:54 PM,72.0,54.0,53,29.90,10.0,NW,12.7,20.7,N/A,,Mostly Cloudy,310,2013-07-10 17:54:00
1:54 PM,73.0,52.0,48,29.91,10.0,WNW,18.4,27.6,N/A,,Partly Cloudy,290,2013-07-10 18:54:00
2:54 PM,71.1,53.1,53,29.91,10.0,NNW,17.3,25.3,N/A,,Mostly Cloudy,340,2013-07-10 19:54:00
3:54 PM,73.9,50.0,43,29.92,10.0,WNW,15.0,25.3,N/A,,Mostly Cloudy,300,2013-07-10 20:54:00
4:54 PM,70.0,50.0,49,29.93,10.0,NW,11.5,-,N/A,,Partly Cloudy,320,2013-07-10 21:54:00
5:54 PM,70.0,50.0,49,29.94,10.0,NW,11.5,-,N/A,,Partly Cloudy,320,2013-07-10 22:54:00
6:54 PM,71.1,50.0,47,29.95,10.0,NW,8.1,-,N/A,,Clear,310,2013-07-10 23:54:00
7:54 PM,68.0,51.1,55,29.95,10.0,WNW,6.9,-,N/A,,Clear,300,2013-07-11 00:54:00
8:54 PM,64.0,52.0,65,29.96,10.0,West,3.5,-,N/A,,Clear,260,2013-07-11 01:54:00
9:54 PM,57.9,53.1,84,29.98,10.0,Calm,Calm,-,N/A,,Clear,0,2013-07-11 02:54:00
10:54 PM,57.0,51.1,81,29.98,10.0,North,3.5,-,N/A,,Clear,350,2013-07-11 03:54:00
11:54 PM,57.0,51.1,81,30.00,10.0,Calm,Calm,-,N/A,,Clear,0,2013-07-11 04:54:00